sensor_id;sensor_type;location;lat;lon;timestamp;P1;durP1;ratioP1;P2;durP2;ratioP2
12302;SDS011;6214;48.012;7.862;2022-07-24T00:02:20;9.10;;;7.15;;
12302;SDS011;6214;48.012;7.862;2022-07-24T00:04:51;8.60;;;7.13;;
12302;SDS011;6214;48.012;7.862;2022-07-24T00:07:23;8.30;;;7.30;;
12302;SDS011;6214;48.012;7.862;2022-07-24T00:09:50;8.60;;;7.60;;
12302;SDS011;6214;48.012;7.862;2022-07-24T00:12:17;8.15;;;7.35;;
12302;SDS011;6214;48.012;7.862;2022-07-24T00:14:44;9.70;;;7.40;;
12302;SDS011;6214;48.012;7.862;2022-07-24T00:17:11;8.40;;;7.47;;
12302;SDS011;6214;48.012;7.862;2022-07-24T00:19:38;8.32;;;7.50;;
12302;SDS011;6214;48.012;7.862;2022-07-24T00:22:04;8.00;;;7.20;;
12302;SDS011;6214;48.012;7.862;2022-07-24T00:24:31;9.07;;;7.10;;
12302;SDS011;6214;48.012;7.862;2022-07-24T00:26:59;7.90;;;7.10;;
12302;SDS011;6214;48.012;7.862;2022-07-24T00:29:27;8.33;;;7.43;;
12302;SDS011;6214;48.012;7.862;2022-07-24T00:31:54;8.98;;;7.85;;
12302;SDS011;6214;48.012;7.862;2022-07-24T00:34:21;9.20;;;8.13;;
12302;SDS011;6214;48.012;7.862;2022-07-24T00:36:48;8.73;;;7.32;;
12302;SDS011;6214;48.012;7.862;2022-07-24T00:39:16;8.65;;;7.80;;
12302;SDS011;6214;48.012;7.862;2022-07-24T00:41:43;8.00;;;7.20;;
12302;SDS011;6214;48.012;7.862;2022-07-24T00:44:14;10.00;;;8.00;;
12302;SDS011;6214;48.012;7.862;2022-07-24T00:46:42;8.85;;;7.93;;
12302;SDS011;6214;48.012;7.862;2022-07-24T00:49:12;9.93;;;8.10;;
12302;SDS011;6214;48.012;7.862;2022-07-24T00:51:47;9.38;;;7.95;;
12302;SDS011;6214;48.012;7.862;2022-07-24T00:54:17;8.90;;;8.00;;
12302;SDS011;6214;48.012;7.862;2022-07-24T00:56:46;8.70;;;7.80;;
12302;SDS011;6214;48.012;7.862;2022-07-24T00:59:15;8.70;;;7.70;;
12302;SDS011;6214;48.012;7.862;2022-07-24T01:01:42;8.40;;;7.60;;
12302;SDS011;6214;48.012;7.862;2022-07-24T01:04:09;9.68;;;7.32;;
12302;SDS011;6214;48.012;7.862;2022-07-24T01:06:45;8.80;;;7.90;;
12302;SDS011;6214;48.012;7.862;2022-07-24T01:09:13;10.25;;;8.57;;
12302;SDS011;6214;48.012;7.862;2022-07-24T01:11:40;9.98;;;8.10;;
12302;SDS011;6214;48.012;7.862;2022-07-24T01:14:08;8.63;;;7.73;;
12302;SDS011;6214;48.012;7.862;2022-07-24T01:16:36;9.63;;;8.10;;
12302;SDS011;6214;48.012;7.862;2022-07-24T01:19:03;8.65;;;7.75;;
12302;SDS011;6214;48.012;7.862;2022-07-24T01:21:31;9.27;;;8.13;;
12302;SDS011;6214;48.012;7.862;2022-07-24T01:23:58;8.88;;;7.97;;
12302;SDS011;6214;48.012;7.862;2022-07-24T01:26:25;9.07;;;7.70;;
12302;SDS011;6214;48.012;7.862;2022-07-24T01:28:52;9.00;;;8.10;;
12302;SDS011;6214;48.012;7.862;2022-07-24T01:31:20;9.07;;;7.60;;
12302;SDS011;6214;48.012;7.862;2022-07-24T01:33:47;8.90;;;8.00;;
12302;SDS011;6214;48.012;7.862;2022-07-24T01:36:14;8.70;;;7.80;;
12302;SDS011;6214;48.012;7.862;2022-07-24T01:38:41;8.85;;;7.95;;
12302;SDS011;6214;48.012;7.862;2022-07-24T01:41:08;8.82;;;7.88;;
12302;SDS011;6214;48.012;7.862;2022-07-24T01:43:34;8.63;;;7.72;;
12302;SDS011;6214;48.012;7.862;2022-07-24T01:46:01;9.00;;;8.10;;
12302;SDS011;6214;48.012;7.862;2022-07-24T01:48:28;9.05;;;8.15;;
12302;SDS011;6214;48.012;7.862;2022-07-24T01:50:55;9.25;;;7.85;;
12302;SDS011;6214;48.012;7.862;2022-07-24T01:53:22;8.75;;;7.75;;
12302;SDS011;6214;48.012;7.862;2022-07-24T01:55:50;9.65;;;7.95;;
12302;SDS011;6214;48.012;7.862;2022-07-24T01:58:18;8.97;;;8.07;;
12302;SDS011;6214;48.012;7.862;2022-07-24T02:00:48;9.50;;;7.78;;
12302;SDS011;6214;48.012;7.862;2022-07-24T02:03:16;8.80;;;7.90;;
12302;SDS011;6214;48.012;7.862;2022-07-24T02:05:43;9.40;;;7.70;;
12302;SDS011;6214;48.012;7.862;2022-07-24T02:08:10;8.50;;;7.50;;
12302;SDS011;6214;48.012;7.862;2022-07-24T02:10:37;8.65;;;7.75;;
12302;SDS011;6214;48.012;7.862;2022-07-24T02:13:04;9.10;;;7.80;;
12302;SDS011;6214;48.012;7.862;2022-07-24T02:15:31;9.00;;;7.70;;
12302;SDS011;6214;48.012;7.862;2022-07-24T02:17:59;9.90;;;7.50;;
12302;SDS011;6214;48.012;7.862;2022-07-24T02:20:27;8.75;;;7.85;;
12302;SDS011;6214;48.012;7.862;2022-07-24T02:22:55;8.68;;;7.78;;
12302;SDS011;6214;48.012;7.862;2022-07-24T02:25:22;10.20;;;7.97;;
12302;SDS011;6214;48.012;7.862;2022-07-24T02:27:49;8.73;;;7.60;;
12302;SDS011;6214;48.012;7.862;2022-07-24T02:30:17;8.03;;;7.23;;
12302;SDS011;6214;48.012;7.862;2022-07-24T02:32:46;8.20;;;7.30;;
12302;SDS011;6214;48.012;7.862;2022-07-24T02:35:13;8.43;;;7.53;;
12302;SDS011;6214;48.012;7.862;2022-07-24T02:37:41;9.48;;;7.90;;
12302;SDS011;6214;48.012;7.862;2022-07-24T02:40:09;9.40;;;8.10;;
12302;SDS011;6214;48.012;7.862;2022-07-24T02:42:37;9.30;;;8.00;;
12302;SDS011;6214;48.012;7.862;2022-07-24T02:45:04;9.50;;;7.20;;
12302;SDS011;6214;48.012;7.862;2022-07-24T02:47:33;8.20;;;7.30;;
12302;SDS011;6214;48.012;7.862;2022-07-24T02:50:00;8.82;;;7.50;;
12302;SDS011;6214;48.012;7.862;2022-07-24T02:52:27;8.40;;;7.45;;
12302;SDS011;6214;48.012;7.862;2022-07-24T02:54:54;8.32;;;7.43;;
12302;SDS011;6214;48.012;7.862;2022-07-24T02:57:21;8.80;;;7.30;;
12302;SDS011;6214;48.012;7.862;2022-07-24T02:59:48;8.70;;;7.30;;
12302;SDS011;6214;48.012;7.862;2022-07-24T03:02:18;8.35;;;7.45;;
12302;SDS011;6214;48.012;7.862;2022-07-24T03:04:45;9.27;;;7.70;;
12302;SDS011;6214;48.012;7.862;2022-07-24T03:07:12;9.80;;;7.10;;
12302;SDS011;6214;48.012;7.862;2022-07-24T03:09:39;8.50;;;7.60;;
12302;SDS011;6214;48.012;7.862;2022-07-24T03:12:06;8.70;;;7.50;;
12302;SDS011;6214;48.012;7.862;2022-07-24T03:14:34;7.90;;;7.10;;
12302;SDS011;6214;48.012;7.862;2022-07-24T03:17:01;9.45;;;7.38;;
12302;SDS011;6214;48.012;7.862;2022-07-24T03:19:29;8.82;;;7.65;;
12302;SDS011;6214;48.012;7.862;2022-07-24T03:21:56;8.38;;;7.40;;
12302;SDS011;6214;48.012;7.862;2022-07-24T03:24:23;9.00;;;8.05;;
12302;SDS011;6214;48.012;7.862;2022-07-24T03:26:50;8.45;;;7.55;;
12302;SDS011;6214;48.012;7.862;2022-07-24T03:29:17;8.57;;;7.68;;
12302;SDS011;6214;48.012;7.862;2022-07-24T03:31:44;8.40;;;7.60;;
12302;SDS011;6214;48.012;7.862;2022-07-24T03:34:11;9.30;;;8.10;;
12302;SDS011;6214;48.012;7.862;2022-07-24T03:36:38;8.77;;;7.88;;
12302;SDS011;6214;48.012;7.862;2022-07-24T03:39:05;8.70;;;7.80;;
12302;SDS011;6214;48.012;7.862;2022-07-24T03:41:34;8.60;;;7.70;;
12302;SDS011;6214;48.012;7.862;2022-07-24T03:44:01;9.02;;;8.05;;
12302;SDS011;6214;48.012;7.862;2022-07-24T03:46:27;8.80;;;7.90;;
12302;SDS011;6214;48.012;7.862;2022-07-24T03:48:55;9.35;;;7.57;;
12302;SDS011;6214;48.012;7.862;2022-07-24T03:51:22;8.50;;;7.70;;
12302;SDS011;6214;48.012;7.862;2022-07-24T03:53:51;8.57;;;7.43;;
12302;SDS011;6214;48.012;7.862;2022-07-24T03:56:20;8.68;;;7.72;;
12302;SDS011;6214;48.012;7.862;2022-07-24T03:58:51;9.70;;;8.30;;
12302;SDS011;6214;48.012;7.862;2022-07-24T04:01:18;9.10;;;8.07;;
12302;SDS011;6214;48.012;7.862;2022-07-24T04:03:46;8.38;;;7.57;;
12302;SDS011;6214;48.012;7.862;2022-07-24T04:06:13;9.40;;;8.40;;
12302;SDS011;6214;48.012;7.862;2022-07-24T04:08:41;8.60;;;7.60;;
12302;SDS011;6214;48.012;7.862;2022-07-24T04:11:07;8.98;;;8.07;;
12302;SDS011;6214;48.012;7.862;2022-07-24T04:13:34;8.68;;;7.78;;
12302;SDS011;6214;48.012;7.862;2022-07-24T04:16:08;8.85;;;7.70;;
12302;SDS011;6214;48.012;7.862;2022-07-24T04:18:35;8.93;;;8.02;;
12302;SDS011;6214;48.012;7.862;2022-07-24T04:21:02;8.60;;;7.70;;
12302;SDS011;6214;48.012;7.862;2022-07-24T04:23:29;9.50;;;8.20;;
12302;SDS011;6214;48.012;7.862;2022-07-24T04:25:56;9.30;;;7.65;;
12302;SDS011;6214;48.012;7.862;2022-07-24T04:28:23;9.57;;;7.85;;
12302;SDS011;6214;48.012;7.862;2022-07-24T04:30:50;8.70;;;7.82;;
12302;SDS011;6214;48.012;7.862;2022-07-24T04:33:17;8.77;;;7.82;;
12302;SDS011;6214;48.012;7.862;2022-07-24T04:35:44;8.52;;;7.63;;
12302;SDS011;6214;48.012;7.862;2022-07-24T04:38:11;9.32;;;7.70;;
12302;SDS011;6214;48.012;7.862;2022-07-24T04:40:38;8.50;;;7.60;;
12302;SDS011;6214;48.012;7.862;2022-07-24T04:43:05;8.60;;;7.70;;
12302;SDS011;6214;48.012;7.862;2022-07-24T04:45:36;8.10;;;7.30;;
12302;SDS011;6214;48.012;7.862;2022-07-24T04:48:03;8.88;;;7.97;;
12302;SDS011;6214;48.012;7.862;2022-07-24T04:50:31;8.30;;;7.50;;
12302;SDS011;6214;48.012;7.862;2022-07-24T04:52:57;10.07;;;7.50;;
12302;SDS011;6214;48.012;7.862;2022-07-24T04:55:24;8.30;;;7.40;;
12302;SDS011;6214;48.012;7.862;2022-07-24T04:57:51;8.30;;;7.10;;
12302;SDS011;6214;48.012;7.862;2022-07-24T05:00:18;8.57;;;7.50;;
12302;SDS011;6214;48.012;7.862;2022-07-24T05:02:45;9.10;;;7.50;;
12302;SDS011;6214;48.012;7.862;2022-07-24T05:05:12;8.50;;;7.60;;
12302;SDS011;6214;48.012;7.862;2022-07-24T05:07:39;8.73;;;7.50;;
12302;SDS011;6214;48.012;7.862;2022-07-24T05:10:06;7.90;;;7.10;;
12302;SDS011;6214;48.012;7.862;2022-07-24T05:12:33;9.68;;;7.80;;
12302;SDS011;6214;48.012;7.862;2022-07-24T05:15:00;8.82;;;7.68;;
12302;SDS011;6214;48.012;7.862;2022-07-24T05:17:27;9.10;;;7.50;;
12302;SDS011;6214;48.012;7.862;2022-07-24T05:19:54;9.18;;;7.50;;
12302;SDS011;6214;48.012;7.862;2022-07-24T05:22:21;8.55;;;7.65;;
12302;SDS011;6214;48.012;7.862;2022-07-24T05:24:48;9.30;;;7.80;;
12302;SDS011;6214;48.012;7.862;2022-07-24T05:27:15;8.63;;;7.72;;
12302;SDS011;6214;48.012;7.862;2022-07-24T05:29:42;9.00;;;7.60;;
12302;SDS011;6214;48.012;7.862;2022-07-24T05:32:09;7.97;;;7.18;;
12302;SDS011;6214;48.012;7.862;2022-07-24T05:34:36;9.00;;;7.50;;
12302;SDS011;6214;48.012;7.862;2022-07-24T05:37:07;8.38;;;7.13;;
12302;SDS011;6214;48.012;7.862;2022-07-24T05:39:34;9.02;;;7.90;;
12302;SDS011;6214;48.012;7.862;2022-07-24T05:42:02;9.17;;;7.33;;
12302;SDS011;6214;48.012;7.862;2022-07-24T05:44:29;7.70;;;6.90;;
12302;SDS011;6214;48.012;7.862;2022-07-24T05:46:56;9.10;;;7.10;;
12302;SDS011;6214;48.012;7.862;2022-07-24T05:49:23;7.82;;;7.03;;
12302;SDS011;6214;48.012;7.862;2022-07-24T05:51:52;8.50;;;7.20;;
12302;SDS011;6214;48.012;7.862;2022-07-24T05:54:19;7.60;;;6.80;;
12302;SDS011;6214;48.012;7.862;2022-07-24T05:56:45;8.80;;;7.50;;
12302;SDS011;6214;48.012;7.862;2022-07-24T05:59:12;8.93;;;7.47;;
12302;SDS011;6214;48.012;7.862;2022-07-24T06:01:40;7.70;;;6.82;;
12302;SDS011;6214;48.012;7.862;2022-07-24T06:04:07;8.18;;;6.38;;
12302;SDS011;6214;48.012;7.862;2022-07-24T06:06:33;9.40;;;6.90;;
12302;SDS011;6214;48.012;7.862;2022-07-24T06:09:00;8.23;;;7.43;;
12302;SDS011;6214;48.012;7.862;2022-07-24T06:11:28;7.78;;;6.50;;
12302;SDS011;6214;48.012;7.862;2022-07-24T06:13:56;8.27;;;6.57;;
12302;SDS011;6214;48.012;7.862;2022-07-24T06:16:23;8.80;;;6.95;;
12302;SDS011;6214;48.012;7.862;2022-07-24T06:18:50;8.05;;;7.18;;
12302;SDS011;6214;48.012;7.862;2022-07-24T06:21:16;8.60;;;7.30;;
12302;SDS011;6214;48.012;7.862;2022-07-24T06:23:43;7.88;;;6.60;;
12302;SDS011;6214;48.012;7.862;2022-07-24T06:26:10;7.95;;;7.15;;
12302;SDS011;6214;48.012;7.862;2022-07-24T06:28:37;8.88;;;7.57;;
12302;SDS011;6214;48.012;7.862;2022-07-24T06:31:04;8.55;;;7.20;;
12302;SDS011;6214;48.012;7.862;2022-07-24T06:33:31;8.40;;;7.35;;
12302;SDS011;6214;48.012;7.862;2022-07-24T06:35:59;9.10;;;6.97;;
12302;SDS011;6214;48.012;7.862;2022-07-24T06:38:25;8.40;;;7.50;;
12302;SDS011;6214;48.012;7.862;2022-07-24T06:40:52;8.63;;;7.73;;
12302;SDS011;6214;48.012;7.862;2022-07-24T06:43:19;8.23;;;6.95;;
12302;SDS011;6214;48.012;7.862;2022-07-24T06:45:47;8.50;;;7.60;;
12302;SDS011;6214;48.012;7.862;2022-07-24T06:48:13;8.63;;;7.72;;
12302;SDS011;6214;48.012;7.862;2022-07-24T06:50:41;8.03;;;6.90;;
12302;SDS011;6214;48.012;7.862;2022-07-24T06:53:08;8.38;;;7.32;;
12302;SDS011;6214;48.012;7.862;2022-07-24T06:55:35;8.17;;;7.30;;
12302;SDS011;6214;48.012;7.862;2022-07-24T06:58:02;8.45;;;7.07;;
12302;SDS011;6214;48.012;7.862;2022-07-24T07:00:29;8.50;;;7.60;;
12302;SDS011;6214;48.012;7.862;2022-07-24T07:02:56;8.57;;;7.68;;
12302;SDS011;6214;48.012;7.862;2022-07-24T07:05:23;8.33;;;7.43;;
12302;SDS011;6214;48.012;7.862;2022-07-24T07:07:50;8.45;;;7.55;;
12302;SDS011;6214;48.012;7.862;2022-07-24T07:10:17;8.27;;;7.47;;
12302;SDS011;6214;48.012;7.862;2022-07-24T07:12:44;7.95;;;7.18;;
12302;SDS011;6214;48.012;7.862;2022-07-24T07:15:11;8.00;;;7.20;;
12302;SDS011;6214;48.012;7.862;2022-07-24T07:17:38;8.07;;;6.80;;
12302;SDS011;6214;48.012;7.862;2022-07-24T07:20:07;7.70;;;6.90;;
12302;SDS011;6214;48.012;7.862;2022-07-24T07:22:35;7.38;;;6.57;;
12302;SDS011;6214;48.012;7.862;2022-07-24T07:25:02;8.00;;;7.00;;
12302;SDS011;6214;48.012;7.862;2022-07-24T07:27:29;7.20;;;6.50;;
12302;SDS011;6214;48.012;7.862;2022-07-24T07:29:55;7.45;;;6.60;;
12302;SDS011;6214;48.012;7.862;2022-07-24T07:32:22;8.10;;;6.93;;
12302;SDS011;6214;48.012;7.862;2022-07-24T07:34:49;7.38;;;6.55;;
12302;SDS011;6214;48.012;7.862;2022-07-24T07:37:19;7.75;;;6.95;;
12302;SDS011;6214;48.012;7.862;2022-07-24T07:39:46;8.93;;;6.50;;
12302;SDS011;6214;48.012;7.862;2022-07-24T07:42:13;7.70;;;6.63;;
12302;SDS011;6214;48.012;7.862;2022-07-24T07:44:40;7.50;;;6.50;;
12302;SDS011;6214;48.012;7.862;2022-07-24T07:47:07;8.00;;;6.50;;
12302;SDS011;6214;48.012;7.862;2022-07-24T07:49:34;8.07;;;6.35;;
12302;SDS011;6214;48.012;7.862;2022-07-24T07:52:01;8.48;;;6.07;;
12302;SDS011;6214;48.012;7.862;2022-07-24T07:54:28;7.72;;;6.30;;
12302;SDS011;6214;48.012;7.862;2022-07-24T07:56:55;8.65;;;6.07;;
12302;SDS011;6214;48.012;7.862;2022-07-24T07:59:22;7.53;;;5.90;;
12302;SDS011;6214;48.012;7.862;2022-07-24T08:01:49;7.38;;;6.40;;
12302;SDS011;6214;48.012;7.862;2022-07-24T08:04:16;7.47;;;6.50;;
12302;SDS011;6214;48.012;7.862;2022-07-24T08:06:42;7.40;;;6.30;;
12302;SDS011;6214;48.012;7.862;2022-07-24T08:09:10;7.75;;;6.70;;
12302;SDS011;6214;48.012;7.862;2022-07-24T08:11:37;7.82;;;6.63;;
12302;SDS011;6214;48.012;7.862;2022-07-24T08:14:04;7.10;;;5.97;;
12302;SDS011;6214;48.012;7.862;2022-07-24T08:16:31;7.32;;;6.10;;
12302;SDS011;6214;48.012;7.862;2022-07-24T08:18:58;8.20;;;6.47;;
12302;SDS011;6214;48.012;7.862;2022-07-24T08:21:25;8.10;;;6.20;;
12302;SDS011;6214;48.012;7.862;2022-07-24T08:23:51;7.50;;;6.28;;
12302;SDS011;6214;48.012;7.862;2022-07-24T08:26:18;8.10;;;6.60;;
12302;SDS011;6214;48.012;7.862;2022-07-24T08:28:45;8.32;;;6.38;;
12302;SDS011;6214;48.012;7.862;2022-07-24T08:31:12;8.63;;;6.63;;
12302;SDS011;6214;48.012;7.862;2022-07-24T08:33:39;7.43;;;6.33;;
12302;SDS011;6214;48.012;7.862;2022-07-24T08:36:07;8.40;;;6.50;;
12302;SDS011;6214;48.012;7.862;2022-07-24T08:38:34;7.88;;;6.45;;
12302;SDS011;6214;48.012;7.862;2022-07-24T08:41:01;7.15;;;6.28;;
12302;SDS011;6214;48.012;7.862;2022-07-24T08:43:28;7.43;;;6.10;;
12302;SDS011;6214;48.012;7.862;2022-07-24T08:45:55;7.20;;;6.50;;
12302;SDS011;6214;48.012;7.862;2022-07-24T08:48:22;7.55;;;6.13;;
12302;SDS011;6214;48.012;7.862;2022-07-24T08:50:50;8.60;;;6.70;;
12302;SDS011;6214;48.012;7.862;2022-07-24T08:53:21;7.25;;;6.20;;
12302;SDS011;6214;48.012;7.862;2022-07-24T08:55:49;7.55;;;6.18;;
12302;SDS011;6214;48.012;7.862;2022-07-24T08:58:17;8.25;;;6.47;;
12302;SDS011;6214;48.012;7.862;2022-07-24T09:00:43;7.90;;;5.88;;
12302;SDS011;6214;48.012;7.862;2022-07-24T09:03:11;7.50;;;6.10;;
12302;SDS011;6214;48.012;7.862;2022-07-24T09:05:51;8.07;;;5.85;;
12302;SDS011;6214;48.012;7.862;2022-07-24T09:08:23;6.82;;;6.00;;
12302;SDS011;6214;48.012;7.862;2022-07-24T09:10:56;8.27;;;6.10;;
12302;SDS011;6214;48.012;7.862;2022-07-24T09:13:27;7.57;;;6.10;;
12302;SDS011;6214;48.012;7.862;2022-07-24T09:15:56;6.80;;;6.07;;
12302;SDS011;6214;48.012;7.862;2022-07-24T09:18:30;7.30;;;6.20;;
12302;SDS011;6214;48.012;7.862;2022-07-24T09:21:12;7.05;;;5.93;;
12302;SDS011;6214;48.012;7.862;2022-07-24T09:23:41;8.50;;;5.95;;
12302;SDS011;6214;48.012;7.862;2022-07-24T09:26:09;6.85;;;5.88;;
12302;SDS011;6214;48.012;7.862;2022-07-24T09:28:48;7.65;;;6.05;;
12302;SDS011;6214;48.012;7.862;2022-07-24T09:31:17;6.75;;;6.00;;
12302;SDS011;6214;48.012;7.862;2022-07-24T09:33:44;7.40;;;6.03;;
12302;SDS011;6214;48.012;7.862;2022-07-24T09:36:12;7.60;;;5.93;;
12302;SDS011;6214;48.012;7.862;2022-07-24T09:38:46;8.05;;;6.00;;
12302;SDS011;6214;48.012;7.862;2022-07-24T09:41:21;7.30;;;6.20;;
12302;SDS011;6214;48.012;7.862;2022-07-24T09:43:56;6.80;;;6.03;;
12302;SDS011;6214;48.012;7.862;2022-07-24T09:46:45;7.70;;;6.50;;
12302;SDS011;6214;48.012;7.862;2022-07-24T09:49:41;7.30;;;6.20;;
12302;SDS011;6214;48.012;7.862;2022-07-24T09:52:10;8.63;;;6.47;;
12302;SDS011;6214;48.012;7.862;2022-07-24T09:59:57;7.55;;;6.50;;
12302;SDS011;6214;48.012;7.862;2022-07-24T10:02:31;7.85;;;6.30;;
12302;SDS011;6214;48.012;7.862;2022-07-24T10:05:00;8.05;;;6.07;;
12302;SDS011;6214;48.012;7.862;2022-07-24T10:07:29;6.88;;;6.18;;
12302;SDS011;6214;48.012;7.862;2022-07-24T10:09:57;7.68;;;6.10;;
12302;SDS011;6214;48.012;7.862;2022-07-24T10:12:26;7.20;;;6.10;;
12302;SDS011;6214;48.012;7.862;2022-07-24T10:14:56;7.90;;;6.23;;
12302;SDS011;6214;48.012;7.862;2022-07-24T10:17:28;7.97;;;5.97;;
12302;SDS011;6214;48.012;7.862;2022-07-24T10:20:20;7.95;;;6.55;;
12302;SDS011;6214;48.012;7.862;2022-07-24T10:23:09;6.80;;;5.70;;
12302;SDS011;6214;48.012;7.862;2022-07-24T10:25:52;7.00;;;6.30;;
12302;SDS011;6214;48.012;7.862;2022-07-24T10:28:42;7.80;;;6.18;;
12302;SDS011;6214;48.012;7.862;2022-07-24T10:31:11;7.65;;;5.88;;
12302;SDS011;6214;48.012;7.862;2022-07-24T10:33:40;8.10;;;5.90;;
12302;SDS011;6214;48.012;7.862;2022-07-24T10:36:17;6.85;;;5.80;;
12302;SDS011;6214;48.012;7.862;2022-07-24T10:38:56;7.10;;;6.10;;
12302;SDS011;6214;48.012;7.862;2022-07-24T10:41:27;7.10;;;5.63;;
12302;SDS011;6214;48.012;7.862;2022-07-24T10:47:20;6.72;;;5.85;;
12302;SDS011;6214;48.012;7.862;2022-07-24T10:49:41;6.75;;;6.05;;
12302;SDS011;6214;48.012;7.862;2022-07-24T10:52:24;6.90;;;6.07;;
12302;SDS011;6214;48.012;7.862;2022-07-24T10:57:59;7.50;;;5.90;;
12302;SDS011;6214;48.012;7.862;2022-07-24T11:03:19;6.72;;;5.80;;
12302;SDS011;6214;48.012;7.862;2022-07-24T11:06:05;8.32;;;5.72;;
12302;SDS011;6214;48.012;7.862;2022-07-24T11:11:08;7.60;;;6.00;;
12302;SDS011;6214;48.012;7.862;2022-07-24T11:18:41;7.43;;;6.07;;
12302;SDS011;6214;48.012;7.862;2022-07-24T11:24:36;7.00;;;6.00;;
12302;SDS011;6214;48.012;7.862;2022-07-24T11:29:53;7.35;;;5.90;;
12302;SDS011;6214;48.012;7.862;2022-07-24T11:32:20;7.53;;;5.95;;
12302;SDS011;6214;48.012;7.862;2022-07-24T11:34:48;7.90;;;6.30;;
12302;SDS011;6214;48.012;7.862;2022-07-24T11:37:17;8.00;;;6.22;;
12302;SDS011;6214;48.012;7.862;2022-07-24T11:39:45;9.00;;;6.10;;
12302;SDS011;6214;48.012;7.862;2022-07-24T11:42:13;7.30;;;5.60;;
12302;SDS011;6214;48.012;7.862;2022-07-24T11:44:42;6.93;;;6.18;;
12302;SDS011;6214;48.012;7.862;2022-07-24T11:47:11;6.90;;;6.10;;
12302;SDS011;6214;48.012;7.862;2022-07-24T11:49:49;8.00;;;6.00;;
12302;SDS011;6214;48.012;7.862;2022-07-24T11:52:21;7.50;;;6.10;;
12302;SDS011;6214;48.012;7.862;2022-07-24T11:54:54;6.45;;;5.57;;
12302;SDS011;6214;48.012;7.862;2022-07-24T11:57:25;7.10;;;6.03;;
12302;SDS011;6214;48.012;7.862;2022-07-24T12:00:18;8.10;;;6.15;;
12302;SDS011;6214;48.012;7.862;2022-07-24T12:02:51;7.32;;;6.32;;
12302;SDS011;6214;48.012;7.862;2022-07-24T12:05:26;6.70;;;5.60;;
12302;SDS011;6214;48.012;7.862;2022-07-24T12:07:55;6.72;;;5.93;;
12302;SDS011;6214;48.012;7.862;2022-07-24T12:10:23;7.00;;;5.80;;
12302;SDS011;6214;48.012;7.862;2022-07-24T12:12:51;7.93;;;6.40;;
12302;SDS011;6214;48.012;7.862;2022-07-24T12:15:21;7.65;;;6.60;;
12302;SDS011;6214;48.012;7.862;2022-07-24T12:18:09;6.83;;;6.13;;
12302;SDS011;6214;48.012;7.862;2022-07-24T12:20:41;7.30;;;6.35;;
12302;SDS011;6214;48.012;7.862;2022-07-24T12:23:11;7.17;;;5.87;;
12302;SDS011;6214;48.012;7.862;2022-07-24T12:25:40;7.72;;;6.35;;
12302;SDS011;6214;48.012;7.862;2022-07-24T12:30:40;7.60;;;5.78;;
12302;SDS011;6214;48.012;7.862;2022-07-24T12:33:19;7.70;;;5.80;;
12302;SDS011;6214;48.012;7.862;2022-07-24T12:35:52;7.68;;;6.22;;
12302;SDS011;6214;48.012;7.862;2022-07-24T12:43:49;7.57;;;6.50;;
12302;SDS011;6214;48.012;7.862;2022-07-24T12:46:22;7.03;;;5.95;;
12302;SDS011;6214;48.012;7.862;2022-07-24T12:49:03;8.90;;;6.37;;
12302;SDS011;6214;48.012;7.862;2022-07-24T12:54:25;7.10;;;6.00;;
12302;SDS011;6214;48.012;7.862;2022-07-24T12:56:59;6.88;;;6.18;;
12302;SDS011;6214;48.012;7.862;2022-07-24T13:01:59;7.97;;;6.53;;
12302;SDS011;6214;48.012;7.862;2022-07-24T13:04:39;6.97;;;6.13;;
12302;SDS011;6214;48.012;7.862;2022-07-24T13:07:08;6.97;;;5.90;;
12302;SDS011;6214;48.012;7.862;2022-07-24T13:09:36;6.88;;;6.00;;
12302;SDS011;6214;48.012;7.862;2022-07-24T13:12:04;7.60;;;5.90;;
12302;SDS011;6214;48.012;7.862;2022-07-24T13:14:32;7.10;;;5.90;;
12302;SDS011;6214;48.012;7.862;2022-07-24T13:17:17;6.68;;;5.78;;
12302;SDS011;6214;48.012;7.862;2022-07-24T13:19:47;7.45;;;5.90;;
12302;SDS011;6214;48.012;7.862;2022-07-24T13:22:16;6.80;;;6.00;;
12302;SDS011;6214;48.012;7.862;2022-07-24T13:24:43;6.80;;;6.10;;
12302;SDS011;6214;48.012;7.862;2022-07-24T13:27:11;7.68;;;6.88;;
12302;SDS011;6214;48.012;7.862;2022-07-24T13:29:43;7.23;;;6.30;;
12302;SDS011;6214;48.012;7.862;2022-07-24T13:32:10;6.80;;;6.10;;
12302;SDS011;6214;48.012;7.862;2022-07-24T13:34:37;7.40;;;6.20;;
12302;SDS011;6214;48.012;7.862;2022-07-24T13:37:04;6.55;;;5.85;;
12302;SDS011;6214;48.012;7.862;2022-07-24T13:39:35;7.70;;;6.20;;
12302;SDS011;6214;48.012;7.862;2022-07-24T13:42:06;7.10;;;5.93;;
12302;SDS011;6214;48.012;7.862;2022-07-24T13:44:33;6.70;;;5.90;;
12302;SDS011;6214;48.012;7.862;2022-07-24T13:46:59;7.57;;;6.03;;
12302;SDS011;6214;48.012;7.862;2022-07-24T13:49:27;7.50;;;6.00;;
12302;SDS011;6214;48.012;7.862;2022-07-24T13:51:54;7.20;;;5.80;;
12302;SDS011;6214;48.012;7.862;2022-07-24T13:54:21;6.80;;;6.03;;
12302;SDS011;6214;48.012;7.862;2022-07-24T13:56:48;8.88;;;6.10;;
12302;SDS011;6214;48.012;7.862;2022-07-24T13:59:16;7.32;;;6.10;;
12302;SDS011;6214;48.012;7.862;2022-07-24T14:01:43;7.18;;;6.30;;
12302;SDS011;6214;48.012;7.862;2022-07-24T14:04:10;7.05;;;6.00;;
12302;SDS011;6214;48.012;7.862;2022-07-24T14:06:56;7.32;;;6.30;;
12302;SDS011;6214;48.012;7.862;2022-07-24T14:09:24;6.90;;;6.20;;
12302;SDS011;6214;48.012;7.862;2022-07-24T14:11:52;7.50;;;6.20;;
12302;SDS011;6214;48.012;7.862;2022-07-24T14:14:19;7.40;;;6.00;;
12302;SDS011;6214;48.012;7.862;2022-07-24T14:16:46;7.20;;;6.30;;
12302;SDS011;6214;48.012;7.862;2022-07-24T14:19:13;7.03;;;5.90;;
12302;SDS011;6214;48.012;7.862;2022-07-24T14:21:40;7.10;;;6.40;;
12302;SDS011;6214;48.012;7.862;2022-07-24T14:24:12;6.85;;;6.05;;
12302;SDS011;6214;48.012;7.862;2022-07-24T14:26:44;7.30;;;6.07;;
12302;SDS011;6214;48.012;7.862;2022-07-24T14:29:12;7.00;;;6.00;;
12302;SDS011;6214;48.012;7.862;2022-07-24T14:31:39;6.25;;;5.57;;
12302;SDS011;6214;48.012;7.862;2022-07-24T14:34:06;6.53;;;5.60;;
12302;SDS011;6214;48.012;7.862;2022-07-24T14:36:34;6.55;;;5.85;;
12302;SDS011;6214;48.012;7.862;2022-07-24T14:39:01;7.72;;;6.20;;
12302;SDS011;6214;48.012;7.862;2022-07-24T14:41:29;6.15;;;5.50;;
12302;SDS011;6214;48.012;7.862;2022-07-24T14:43:56;7.57;;;6.13;;
12302;SDS011;6214;48.012;7.862;2022-07-24T14:46:27;7.00;;;6.00;;
12302;SDS011;6214;48.012;7.862;2022-07-24T14:48:54;7.45;;;5.93;;
12302;SDS011;6214;48.012;7.862;2022-07-24T14:51:21;7.20;;;6.27;;
12302;SDS011;6214;48.012;7.862;2022-07-24T14:53:48;6.45;;;5.75;;
12302;SDS011;6214;48.012;7.862;2022-07-24T14:56:15;7.00;;;5.80;;
12302;SDS011;6214;48.012;7.862;2022-07-24T14:58:41;6.95;;;5.55;;
12302;SDS011;6214;48.012;7.862;2022-07-24T15:01:08;8.48;;;6.00;;
12302;SDS011;6214;48.012;7.862;2022-07-24T15:03:35;8.35;;;6.05;;
12302;SDS011;6214;48.012;7.862;2022-07-24T15:06:02;7.40;;;6.03;;
12302;SDS011;6214;48.012;7.862;2022-07-24T15:08:29;7.00;;;6.20;;
12302;SDS011;6214;48.012;7.862;2022-07-24T15:10:56;7.03;;;6.03;;
12302;SDS011;6214;48.012;7.862;2022-07-24T15:13:23;7.90;;;6.20;;
12302;SDS011;6214;48.012;7.862;2022-07-24T15:15:55;7.70;;;5.80;;
12302;SDS011;6214;48.012;7.862;2022-07-24T15:18:22;7.80;;;6.10;;
12302;SDS011;6214;48.012;7.862;2022-07-24T15:20:49;6.90;;;5.90;;
12302;SDS011;6214;48.012;7.862;2022-07-24T15:23:16;7.80;;;5.80;;
12302;SDS011;6214;48.012;7.862;2022-07-24T15:25:43;6.65;;;5.60;;
12302;SDS011;6214;48.012;7.862;2022-07-24T15:28:09;7.18;;;5.32;;
12302;SDS011;6214;48.012;7.862;2022-07-24T15:30:37;7.40;;;5.90;;
12302;SDS011;6214;48.012;7.862;2022-07-24T15:33:06;7.53;;;6.07;;
12302;SDS011;6214;48.012;7.862;2022-07-24T15:35:34;6.70;;;5.80;;
12302;SDS011;6214;48.012;7.862;2022-07-24T15:38:01;6.55;;;5.85;;
12302;SDS011;6214;48.012;7.862;2022-07-24T15:40:28;6.70;;;5.80;;
12302;SDS011;6214;48.012;7.862;2022-07-24T15:42:57;7.70;;;6.10;;
12302;SDS011;6214;48.012;7.862;2022-07-24T15:45:24;6.72;;;5.70;;
12302;SDS011;6214;48.012;7.862;2022-07-24T15:47:51;8.07;;;6.10;;
12302;SDS011;6214;48.012;7.862;2022-07-24T15:50:18;6.97;;;5.90;;
12302;SDS011;6214;48.012;7.862;2022-07-24T15:52:46;6.55;;;5.80;;